createdAt,value
2024-01-16T00:00:21.925Z,7.50
2024-01-16T00:02:50.718Z,7.87
2024-01-16T00:05:18.065Z,7.20
2024-01-16T00:07:45.178Z,7.23
2024-01-16T00:10:12.297Z,7.67
2024-01-16T00:12:39.452Z,7.70
2024-01-16T00:15:07.116Z,6.97
2024-01-16T00:17:34.264Z,7.20
2024-01-16T00:20:03.080Z,7.33
2024-01-16T00:22:30.194Z,8.40
2024-01-16T00:24:57.256Z,6.77
2024-01-16T00:27:24.317Z,10.00
2024-01-16T00:29:51.466Z,7.80
2024-01-16T00:32:18.741Z,7.50
2024-01-16T00:34:46.009Z,7.93
2024-01-16T00:37:14.706Z,7.77
2024-01-16T00:39:42.105Z,6.97
2024-01-16T00:42:09.458Z,7.30
2024-01-16T00:44:36.594Z,7.10
2024-01-16T00:47:03.732Z,6.80
2024-01-16T00:49:31.002Z,7.90
2024-01-16T00:51:58.143Z,8.37
2024-01-16T00:54:26.536Z,8.60
2024-01-16T00:56:53.918Z,7.20
2024-01-16T00:59:21.011Z,8.40
2024-01-16T01:01:48.294Z,8.33
2024-01-16T01:04:15.333Z,9.57
2024-01-16T01:06:42.516Z,9.37
2024-01-16T01:09:09.605Z,11.83
2024-01-16T01:11:38.088Z,10.57
2024-01-16T01:14:05.304Z,11.30
2024-01-16T01:16:32.481Z,10.57
2024-01-16T01:18:59.734Z,11.10
2024-01-16T01:21:27.148Z,10.70
2024-01-16T01:23:54.376Z,11.60
2024-01-16T01:26:21.593Z,12.80
2024-01-16T01:28:50.046Z,11.63
2024-01-16T01:31:17.177Z,12.10
2024-01-16T01:33:44.315Z,12.27
2024-01-16T01:36:11.411Z,10.90
2024-01-16T01:38:38.533Z,13.23
2024-01-16T01:41:08.423Z,12.37
2024-01-16T01:43:35.878Z,12.20
2024-01-16T01:46:11.660Z,13.33
2024-01-16T01:48:39.595Z,12.07
2024-01-16T01:51:06.852Z,11.73
2024-01-16T01:53:35.184Z,11.40
2024-01-16T01:56:04.750Z,10.23
2024-01-16T01:58:32.030Z,10.27
2024-01-16T02:00:59.193Z,11.60
2024-01-16T02:03:29.142Z,10.20
2024-01-16T02:05:56.945Z,9.00
2024-01-16T02:08:24.145Z,11.03
2024-01-16T02:10:51.605Z,8.80
2024-01-16T02:13:20.583Z,9.33
2024-01-16T02:15:47.683Z,8.30
2024-01-16T02:18:14.794Z,9.47
2024-01-16T02:20:43.486Z,10.70
2024-01-16T02:23:11.879Z,9.33
2024-01-16T02:25:40.530Z,10.17
2024-01-16T02:28:07.620Z,10.60
2024-01-16T02:30:34.804Z,10.77
2024-01-16T02:33:02.016Z,11.70
2024-01-16T02:35:29.254Z,11.30
2024-01-16T02:37:56.616Z,9.90
2024-01-16T02:40:23.989Z,10.90
2024-01-16T02:42:52.509Z,10.57
2024-01-16T02:45:19.858Z,11.50
2024-01-16T02:47:47.016Z,10.30
2024-01-16T02:50:14.243Z,10.40
2024-01-16T02:52:41.598Z,11.23
2024-01-16T02:55:09.198Z,10.30
2024-01-16T02:57:36.262Z,10.50
2024-01-16T03:00:05.055Z,11.33
2024-01-16T03:02:32.113Z,10.57
2024-01-16T03:04:59.175Z,10.20
2024-01-16T03:07:26.249Z,9.50
2024-01-16T03:09:53.559Z,10.90
2024-01-16T03:12:20.650Z,11.10
2024-01-16T03:14:47.874Z,11.67
2024-01-16T03:17:16.454Z,11.20
2024-01-16T03:19:43.779Z,12.17
2024-01-16T03:22:10.872Z,12.13
2024-01-16T03:24:37.937Z,8.70
2024-01-16T03:27:05.329Z,9.93
2024-01-16T03:29:32.471Z,9.90
2024-01-16T03:31:59.550Z,9.10
2024-01-16T03:34:28.090Z,10.30
2024-01-16T03:36:55.487Z,9.90
2024-01-16T03:39:22.597Z,11.13
2024-01-16T03:41:49.684Z,8.40
2024-01-16T03:44:16.814Z,11.83
2024-01-16T03:46:44.184Z,9.90
2024-01-16T03:49:11.409Z,10.57
2024-01-16T03:51:39.888Z,8.73
2024-01-16T03:54:07.018Z,9.30
2024-01-16T03:56:34.163Z,7.83
2024-01-16T03:59:01.254Z,9.80
2024-01-16T04:01:31.768Z,7.63
2024-01-16T04:03:58.894Z,7.77
2024-01-16T04:06:26.151Z,9.20
2024-01-16T04:08:54.819Z,8.87
2024-01-16T04:11:21.995Z,9.20
2024-01-16T04:13:49.187Z,8.60
2024-01-16T04:16:16.275Z,8.17
2024-01-16T04:18:44.061Z,7.17
2024-01-16T04:21:11.196Z,8.13
2024-01-16T04:23:38.558Z,8.60
2024-01-16T04:26:07.113Z,6.83
2024-01-16T04:28:34.185Z,7.20
2024-01-16T04:31:01.522Z,7.90
2024-01-16T04:33:29.142Z,8.37
2024-01-16T04:35:56.328Z,7.60
2024-01-16T04:38:23.408Z,7.87
2024-01-16T04:40:50.519Z,6.60
2024-01-16T04:43:19.010Z,6.07
2024-01-16T04:45:46.051Z,7.97
2024-01-16T04:48:13.277Z,8.20
2024-01-16T04:50:40.463Z,7.30
2024-01-16T04:53:07.863Z,5.20
2024-01-16T04:55:34.939Z,9.37
2024-01-16T04:58:02.042Z,6.90
2024-01-16T05:00:30.732Z,8.60
2024-01-16T05:02:58.000Z,8.43
2024-01-16T05:05:27.820Z,8.63
2024-01-16T05:07:57.035Z,9.60
2024-01-16T05:10:24.163Z,8.40
2024-01-16T05:12:51.299Z,9.40
2024-01-16T05:15:18.463Z,9.63
2024-01-16T05:17:47.063Z,10.03
2024-01-16T05:20:14.382Z,8.23
2024-01-16T05:22:41.494Z,8.03
2024-01-16T05:25:08.971Z,10.27
2024-01-16T05:27:36.231Z,9.17
2024-01-16T05:30:03.465Z,8.53
2024-01-16T05:32:30.720Z,10.10
2024-01-16T05:35:00.245Z,8.20
2024-01-16T05:37:27.695Z,9.93
2024-01-16T05:39:54.746Z,8.07
2024-01-16T05:42:21.824Z,7.57
2024-01-16T05:44:49.224Z,9.40
2024-01-16T05:47:16.407Z,9.00
2024-01-16T05:49:43.878Z,8.50
2024-01-16T05:52:12.447Z,10.13
2024-01-16T05:54:39.488Z,6.87
2024-01-16T05:57:06.557Z,7.27
2024-01-16T05:59:34.101Z,9.90
2024-01-16T06:02:01.195Z,7.17
2024-01-16T06:04:28.536Z,6.93
2024-01-16T06:06:55.950Z,7.40
2024-01-16T06:09:24.397Z,6.87
2024-01-16T06:11:51.563Z,5.07
2024-01-16T06:14:20.063Z,7.93
2024-01-16T06:16:48.539Z,6.77
2024-01-16T06:19:15.643Z,5.60
2024-01-16T06:21:42.817Z,4.57
2024-01-16T06:24:09.933Z,5.57
2024-01-16T06:26:38.472Z,4.77
2024-01-16T06:29:06.845Z,5.97
2024-01-16T06:31:35.329Z,4.50
2024-01-16T06:34:02.573Z,6.23
2024-01-16T06:36:29.972Z,5.50
2024-01-16T06:38:57.091Z,4.57
2024-01-16T06:41:24.285Z,4.73
2024-01-16T06:43:52.732Z,5.40
2024-01-16T06:46:20.083Z,4.17
2024-01-16T06:48:47.482Z,6.27
2024-01-16T06:51:14.576Z,5.47
2024-01-16T06:53:41.675Z,5.00
2024-01-16T06:56:08.899Z,5.77
2024-01-16T06:58:36.058Z,4.40
2024-01-16T07:01:05.437Z,4.83
2024-01-16T07:03:32.603Z,4.70
2024-01-16T07:05:59.916Z,3.93
2024-01-16T07:08:27.297Z,4.60
2024-01-16T07:10:54.418Z,4.83
2024-01-16T07:13:21.552Z,4.50
2024-01-16T07:15:48.654Z,5.30
2024-01-16T07:18:17.226Z,4.70
2024-01-16T07:20:44.459Z,2.90
2024-01-16T07:23:11.787Z,3.50
2024-01-16T07:25:38.870Z,4.53
2024-01-16T07:28:05.943Z,3.30
2024-01-16T07:30:33.076Z,5.37
2024-01-16T07:33:00.680Z,4.13
2024-01-16T07:35:29.300Z,4.30
2024-01-16T07:37:56.415Z,3.53
2024-01-16T07:40:23.689Z,3.73
2024-01-16T07:42:50.743Z,3.40
2024-01-16T07:45:17.840Z,4.03
2024-01-16T07:47:45.055Z,2.83
2024-01-16T07:50:12.290Z,4.30
2024-01-16T07:52:40.925Z,4.80
2024-01-16T07:55:08.087Z,3.57
2024-01-16T07:57:35.168Z,3.30
2024-01-16T08:00:02.356Z,5.10
2024-01-16T08:02:33.989Z,4.10
2024-01-16T08:05:01.173Z,4.17
2024-01-16T08:07:28.625Z,4.10
2024-01-16T08:09:57.151Z,3.87
2024-01-16T08:12:24.300Z,4.83
2024-01-16T08:14:51.569Z,4.67
2024-01-16T08:17:19.091Z,4.30
2024-01-16T08:19:46.503Z,4.37
2024-01-16T08:22:13.640Z,4.57
2024-01-16T08:24:40.693Z,3.10
2024-01-16T08:27:09.171Z,3.70
2024-01-16T08:29:36.330Z,3.30
2024-01-16T08:32:03.480Z,4.27
2024-01-16T08:34:30.944Z,4.37
2024-01-16T08:36:58.528Z,4.07
2024-01-16T08:39:25.862Z,3.90
2024-01-16T08:41:53.044Z,3.93
2024-01-16T08:44:21.599Z,4.10
2024-01-16T08:46:48.736Z,5.27
2024-01-16T08:49:19.815Z,4.43
2024-01-16T08:51:48.735Z,3.53
2024-01-16T08:54:15.943Z,3.40
2024-01-16T08:56:43.406Z,5.27
2024-01-16T08:59:10.550Z,3.80
2024-01-16T09:01:38.971Z,3.20
2024-01-16T09:04:06.076Z,3.80
2024-01-16T09:06:33.600Z,2.60
2024-01-16T09:09:00.941Z,4.23
2024-01-16T09:11:28.187Z,3.93
2024-01-16T09:13:55.300Z,3.73
2024-01-16T09:16:22.501Z,3.73
2024-01-16T09:18:50.981Z,3.60
2024-01-16T09:21:18.421Z,4.63
2024-01-16T09:23:45.910Z,4.00
2024-01-16T09:26:13.098Z,3.97
2024-01-16T09:28:40.237Z,3.70
2024-01-16T09:31:07.717Z,4.40
2024-01-16T09:33:35.639Z,3.77
2024-01-16T09:36:04.483Z,3.77
2024-01-16T09:38:31.676Z,3.63
2024-01-16T09:40:58.842Z,3.83
2024-01-16T09:43:27.725Z,4.70
2024-01-16T09:45:55.969Z,3.47
2024-01-16T09:48:23.855Z,3.67
2024-01-16T09:50:51.466Z,4.20
2024-01-16T09:53:20.007Z,4.13
2024-01-16T09:55:47.529Z,5.40
2024-01-16T09:58:14.657Z,5.33
2024-01-16T10:00:43.820Z,4.40
2024-01-16T10:03:12.084Z,4.40
2024-01-16T10:05:40.096Z,4.77
2024-01-16T10:08:07.481Z,4.10
2024-01-16T10:10:46.165Z,5.23
2024-01-16T10:13:16.113Z,4.13
2024-01-16T10:15:43.261Z,4.80
2024-01-16T10:18:23.195Z,4.17
2024-01-16T10:20:50.428Z,3.40
2024-01-16T10:23:23.734Z,4.30
2024-01-16T10:26:06.008Z,4.00
2024-01-16T10:28:33.378Z,4.40
2024-01-16T10:31:03.610Z,4.43
2024-01-16T10:33:31.402Z,3.50
2024-01-16T10:36:11.799Z,3.73
2024-01-16T10:38:39.711Z,3.80
2024-01-16T10:41:17.550Z,4.80
2024-01-16T10:43:45.456Z,3.13
2024-01-16T10:46:13.718Z,4.27
2024-01-16T10:48:42.630Z,3.30
2024-01-16T10:51:11.245Z,4.53
2024-01-16T10:53:39.001Z,3.43
2024-01-16T10:56:07.606Z,4.30
2024-01-16T10:58:37.927Z,4.23
2024-01-16T11:01:05.641Z,3.27
2024-01-16T11:03:36.709Z,3.47
2024-01-16T11:06:07.259Z,3.53
2024-01-16T11:08:34.952Z,4.47
2024-01-16T11:11:02.386Z,4.37
2024-01-16T11:13:29.637Z,4.40
2024-01-16T11:15:59.545Z,3.67
2024-01-16T11:18:28.313Z,4.17
2024-01-16T11:21:04.873Z,3.20
2024-01-16T11:23:35.392Z,4.10
2024-01-16T11:26:24.764Z,4.37
2024-01-16T11:28:52.255Z,4.13
2024-01-16T11:31:34.175Z,4.43
2024-01-16T11:34:01.855Z,3.53
2024-01-16T11:36:45.178Z,4.33
2024-01-16T11:39:13.926Z,3.57
2024-01-16T11:41:49.467Z,4.40
2024-01-16T11:44:32.048Z,3.40
2024-01-16T11:47:04.036Z,4.73
2024-01-16T11:49:31.382Z,4.70
2024-01-16T11:51:58.732Z,4.47
2024-01-16T11:54:25.849Z,4.40
2024-01-16T11:57:03.010Z,4.83
2024-01-16T11:59:51.916Z,4.20
2024-01-16T12:02:23.025Z,4.33
2024-01-16T12:04:56.105Z,4.20
2024-01-16T12:07:23.239Z,3.60
2024-01-16T12:09:50.550Z,3.60
2024-01-16T12:12:17.826Z,5.10
2024-01-16T12:14:52.514Z,5.80
2024-01-16T12:17:21.125Z,4.10
2024-01-16T12:19:48.434Z,4.90
2024-01-16T12:22:15.736Z,4.73
2024-01-16T12:24:43.086Z,3.70
2024-01-16T12:27:10.331Z,4.07
2024-01-16T12:29:37.750Z,5.37
2024-01-16T12:32:08.996Z,4.20
2024-01-16T12:34:44.789Z,4.37
2024-01-16T12:37:11.978Z,4.10
2024-01-16T12:39:39.056Z,4.27
2024-01-16T12:42:06.609Z,4.00
2024-01-16T12:44:33.815Z,3.77
2024-01-16T12:47:00.953Z,4.20
2024-01-16T12:49:28.106Z,5.33
2024-01-16T12:52:10.140Z,4.90
2024-01-16T12:54:38.803Z,4.40
2024-01-16T12:57:06.014Z,4.50
2024-01-16T12:59:33.324Z,4.60
2024-01-16T13:02:00.484Z,4.03
2024-01-16T13:04:27.601Z,3.97
2024-01-16T13:07:02.444Z,3.93
2024-01-16T13:09:29.606Z,4.20
2024-01-16T13:11:58.225Z,4.00
2024-01-16T13:14:25.735Z,3.67
2024-01-16T13:16:53.411Z,4.60
2024-01-16T13:19:21.431Z,4.77
2024-01-16T13:21:48.960Z,4.37
2024-01-16T13:24:16.123Z,4.20
2024-01-16T13:26:43.189Z,3.97
2024-01-16T13:29:11.648Z,3.67
2024-01-16T13:31:38.903Z,4.63
2024-01-16T13:34:06.314Z,4.63
2024-01-16T13:36:47.314Z,4.57
2024-01-16T13:39:20.657Z,4.10
2024-01-16T13:41:47.759Z,4.90
2024-01-16T13:44:16.289Z,4.33
2024-01-16T13:46:54.322Z,4.90
2024-01-16T13:49:28.915Z,4.20
2024-01-16T13:51:56.179Z,3.90
2024-01-16T13:54:23.299Z,5.17
2024-01-16T13:56:59.830Z,4.40
2024-01-16T13:59:35.363Z,5.70
2024-01-16T14:02:03.152Z,3.67
2024-01-16T14:04:30.392Z,4.37
2024-01-16T14:07:10.692Z,4.47
2024-01-16T14:09:40.914Z,3.93
2024-01-16T14:12:08.394Z,4.53
2024-01-16T14:14:37.085Z,3.50
2024-01-16T14:17:04.447Z,4.57
2024-01-16T14:19:32.315Z,5.17
2024-01-16T14:21:59.934Z,4.97
2024-01-16T14:24:27.200Z,5.23
2024-01-16T14:26:54.358Z,5.50
2024-01-16T14:29:21.460Z,5.10
2024-01-16T14:31:50.786Z,4.77
2024-01-16T14:34:18.430Z,5.27
2024-01-16T14:36:45.588Z,4.40
2024-01-16T14:39:12.662Z,4.07
2024-01-16T14:41:39.744Z,4.37
2024-01-16T14:44:06.817Z,3.80
2024-01-16T14:46:33.871Z,4.47
2024-01-16T14:49:02.376Z,4.47
2024-01-16T14:51:29.739Z,4.90
2024-01-16T14:53:56.968Z,4.17
2024-01-16T14:56:24.172Z,4.30
2024-01-16T14:58:51.311Z,4.30
2024-01-16T15:01:19.562Z,3.90
2024-01-16T15:03:46.750Z,5.10
2024-01-16T15:06:15.206Z,4.60
2024-01-16T15:08:42.325Z,4.10
2024-01-16T15:11:09.435Z,4.30
2024-01-16T15:13:36.538Z,5.20
2024-01-16T15:16:03.693Z,4.50
2024-01-16T15:18:30.868Z,5.13
2024-01-16T15:20:58.101Z,4.33
2024-01-16T15:23:26.655Z,4.47
2024-01-16T15:25:53.747Z,5.00
2024-01-16T15:28:20.939Z,4.90
2024-01-16T15:30:48.020Z,4.87
2024-01-16T15:33:15.328Z,4.53
2024-01-16T15:35:42.742Z,4.90
2024-01-16T15:38:09.877Z,5.43
2024-01-16T15:40:38.342Z,5.20
2024-01-16T15:43:05.485Z,4.17
2024-01-16T15:45:32.618Z,5.23
2024-01-16T15:47:59.783Z,4.93
2024-01-16T15:50:26.889Z,4.93
2024-01-16T15:52:54.031Z,5.00
2024-01-16T15:55:21.119Z,5.10
2024-01-16T15:57:49.531Z,5.17
2024-01-16T16:00:16.831Z,4.90
2024-01-16T16:02:43.977Z,6.30
2024-01-16T16:05:11.170Z,5.20
2024-01-16T16:07:38.302Z,5.80
2024-01-16T16:10:05.713Z,5.67
2024-01-16T16:12:33.084Z,6.07
2024-01-16T16:15:01.955Z,5.07
2024-01-16T16:17:29.238Z,6.57
2024-01-16T16:19:56.554Z,6.00
2024-01-16T16:22:23.682Z,5.50
2024-01-16T16:24:50.831Z,5.90
2024-01-16T16:27:23.323Z,5.50
2024-01-16T16:29:50.666Z,6.17
2024-01-16T16:32:19.157Z,5.80
2024-01-16T16:34:46.398Z,7.40
2024-01-16T16:37:13.496Z,5.50
2024-01-16T16:39:40.570Z,5.40
2024-01-16T16:42:07.682Z,6.37
2024-01-16T16:44:34.842Z,4.70
2024-01-16T16:47:01.952Z,5.43
2024-01-16T16:49:30.515Z,6.00
2024-01-16T16:51:57.566Z,5.20
2024-01-16T16:54:25.708Z,6.00
2024-01-16T16:56:52.968Z,5.60
2024-01-16T16:59:20.535Z,5.27
2024-01-16T17:01:47.770Z,5.57
2024-01-16T17:04:14.953Z,5.57
2024-01-16T17:06:43.761Z,6.60
2024-01-16T17:09:10.961Z,6.30
2024-01-16T17:11:38.093Z,7.73
2024-01-16T17:14:05.518Z,6.60
2024-01-16T17:16:32.679Z,5.97
2024-01-16T17:18:59.850Z,6.33
2024-01-16T17:21:26.960Z,6.23
2024-01-16T17:23:55.427Z,5.77
2024-01-16T17:26:22.657Z,5.87
2024-01-16T17:28:49.836Z,5.80
2024-01-16T17:31:16.932Z,6.53
2024-01-16T17:33:44.347Z,6.13
2024-01-16T17:36:11.568Z,6.33
2024-01-16T17:38:38.808Z,6.53
2024-01-16T17:41:07.552Z,6.07
2024-01-16T17:43:35.012Z,6.40
2024-01-16T17:46:02.356Z,5.70
2024-01-16T17:48:30.630Z,6.97
2024-01-16T17:50:58.101Z,6.60
2024-01-16T17:53:25.451Z,7.13
2024-01-16T17:55:52.569Z,7.00
2024-01-16T17:58:21.005Z,5.60
2024-01-16T18:00:48.076Z,5.93
2024-01-16T18:03:24.046Z,6.90
2024-01-16T18:05:59.028Z,7.70
2024-01-16T18:08:26.364Z,6.37
2024-01-16T18:10:53.509Z,7.20
2024-01-16T18:13:21.969Z,7.23
2024-01-16T18:15:49.112Z,7.77
2024-01-16T18:18:16.254Z,7.10
2024-01-16T18:20:43.480Z,6.87
2024-01-16T18:23:10.569Z,6.60
2024-01-16T18:25:37.671Z,6.97
2024-01-16T18:28:05.020Z,6.93
2024-01-16T18:30:33.498Z,8.00
2024-01-16T18:33:00.744Z,6.10
2024-01-16T18:35:28.036Z,7.23
2024-01-16T18:37:55.376Z,7.70
2024-01-16T18:40:22.684Z,8.30
2024-01-16T18:42:49.773Z,8.10
2024-01-16T18:45:17.548Z,7.73
2024-01-16T18:47:46.151Z,7.03
2024-01-16T18:50:13.415Z,7.70
2024-01-16T18:52:40.888Z,7.90
2024-01-16T18:55:08.206Z,7.63
2024-01-16T18:57:35.323Z,6.90
2024-01-16T19:00:02.647Z,6.60
2024-01-16T19:02:30.109Z,6.70
2024-01-16T19:04:58.578Z,7.80
2024-01-16T19:07:25.702Z,6.90
2024-01-16T19:09:52.835Z,7.47
2024-01-16T19:12:19.940Z,7.27
2024-01-16T19:14:48.886Z,6.80
2024-01-16T19:17:16.288Z,5.70
2024-01-16T19:19:43.400Z,6.37
2024-01-16T19:22:11.915Z,7.20
2024-01-16T19:24:39.072Z,6.30
2024-01-16T19:27:06.444Z,6.90
2024-01-16T19:29:33.671Z,7.33
2024-01-16T19:32:00.728Z,6.13
2024-01-16T19:34:27.926Z,7.80
2024-01-16T19:36:55.073Z,6.07
2024-01-16T19:39:23.464Z,6.30
2024-01-16T19:41:50.616Z,6.40
2024-01-16T19:44:17.882Z,6.47
2024-01-16T19:46:44.999Z,5.30
2024-01-16T19:49:12.354Z,6.50
2024-01-16T19:51:39.940Z,6.27
2024-01-16T19:54:07.100Z,5.77
2024-01-16T19:56:35.614Z,6.60
2024-01-16T19:59:02.716Z,6.03
2024-01-16T20:01:29.892Z,8.20
2024-01-16T20:03:57.025Z,6.60
2024-01-16T20:06:24.222Z,7.17
2024-01-16T20:08:51.970Z,7.20
2024-01-16T20:11:25.972Z,7.20
2024-01-16T20:13:54.384Z,6.03
2024-01-16T20:16:22.593Z,6.87
2024-01-16T20:18:50.031Z,7.60
2024-01-16T20:21:17.222Z,6.60
2024-01-16T20:23:44.305Z,5.67
2024-01-16T20:26:11.381Z,6.77
2024-01-16T20:28:38.467Z,7.73
2024-01-16T20:31:06.974Z,6.10
2024-01-16T20:33:34.372Z,6.90
2024-01-16T20:36:01.648Z,7.30
2024-01-16T20:38:28.830Z,6.30
2024-01-16T20:40:55.909Z,6.50
2024-01-16T20:43:22.990Z,7.00
2024-01-16T20:45:50.056Z,6.80
2024-01-16T20:48:18.518Z,8.10
2024-01-16T20:50:45.630Z,7.33
2024-01-16T20:53:12.759Z,8.10
2024-01-16T20:55:39.870Z,8.00
2024-01-16T20:58:06.967Z,6.70
2024-01-16T21:00:34.032Z,7.13
2024-01-16T21:03:01.612Z,7.43
2024-01-16T21:05:30.129Z,7.73
2024-01-16T21:07:57.524Z,8.20
2024-01-16T21:10:24.675Z,6.73
2024-01-16T21:12:51.754Z,6.60
2024-01-16T21:15:19.028Z,8.00
2024-01-16T21:17:46.217Z,7.30
2024-01-16T21:20:13.668Z,7.77
2024-01-16T21:22:42.192Z,7.73
2024-01-16T21:25:09.797Z,8.03
2024-01-16T21:27:36.873Z,8.47
2024-01-16T21:30:07.596Z,7.70
2024-01-16T21:32:34.911Z,8.93
2024-01-16T21:35:02.061Z,8.77
2024-01-16T21:37:29.161Z,8.23
2024-01-16T21:39:57.566Z,7.10
2024-01-16T21:42:24.656Z,7.30
2024-01-16T21:44:51.693Z,7.03
2024-01-16T21:47:18.827Z,7.07
2024-01-16T21:49:48.456Z,9.60
2024-01-16T21:52:16.883Z,9.00
2024-01-16T21:54:43.958Z,7.90
2024-01-16T21:57:12.419Z,8.10
2024-01-16T21:59:39.553Z,9.30
2024-01-16T22:02:07.127Z,8.50
2024-01-16T22:04:34.275Z,7.10
2024-01-16T22:07:01.370Z,7.97
2024-01-16T22:09:28.461Z,7.60
2024-01-16T22:11:55.539Z,6.87
2024-01-16T22:14:24.079Z,8.43
2024-01-16T22:16:51.247Z,7.67
2024-01-16T22:19:18.350Z,9.50
2024-01-16T22:21:45.496Z,8.30
2024-01-16T22:24:12.748Z,8.03
2024-01-16T22:26:39.972Z,9.07
2024-01-16T22:29:07.076Z,9.40
2024-01-16T22:31:35.596Z,8.40
2024-01-16T22:34:02.949Z,9.60
2024-01-16T22:36:30.233Z,9.03
2024-01-16T22:38:57.331Z,8.67
2024-01-16T22:41:24.495Z,8.17
2024-01-16T22:43:51.628Z,9.10
2024-01-16T22:46:18.709Z,8.80
2024-01-16T22:48:47.364Z,8.47
2024-01-16T22:51:14.596Z,8.87
2024-01-16T22:53:41.765Z,8.63
2024-01-16T22:56:08.839Z,10.37
2024-01-16T22:58:35.917Z,9.40
2024-01-16T23:01:03.091Z,10.50
2024-01-16T23:03:30.236Z,8.93
2024-01-16T23:05:58.803Z,8.37
2024-01-16T23:08:25.942Z,9.00
2024-01-16T23:10:53.031Z,9.60
2024-01-16T23:13:20.153Z,8.63
2024-01-16T23:15:47.362Z,9.13
2024-01-16T23:18:14.506Z,9.13
2024-01-16T23:20:41.683Z,10.70
2024-01-16T23:23:10.155Z,10.10
2024-01-16T23:25:37.229Z,8.67
2024-01-16T23:28:04.548Z,8.87
2024-01-16T23:30:31.754Z,8.40
2024-01-16T23:32:58.986Z,8.60
2024-01-16T23:35:26.143Z,8.90
2024-01-16T23:37:53.267Z,9.20
2024-01-16T23:40:21.723Z,9.10
2024-01-16T23:42:48.818Z,9.63
2024-01-16T23:45:24.253Z,9.37
2024-01-16T23:47:57.676Z,8.93
2024-01-16T23:50:25.488Z,9.50
2024-01-16T23:52:52.589Z,8.53
2024-01-16T23:55:19.696Z,10.17
2024-01-16T23:57:48.136Z,9.83
